Time;durP1;ratioP1;P1;durP2;ratioP2;P2;SDS_P1;SDS_P2;PMS_P1;PMS_P2;Temp;Humidity;BMP_temperature;BMP_pressure;BME280_temperature;BME280_humidity;BME280_pressure;Samples;Min_cycle;Max_cycle;Signal;HPM_P1;HPM_P2
2023/08/03 00:00:23;;;;;;;3.58;1.25;;;;;;;19.19;68.35;97304.16;4992539;28;20475;-81
2023/08/03 00:02:49;;;;;;;6.32;1.42;;;;;;;19.20;68.39;97295.97;4992612;28;20053;-83
2023/08/03 00:05:19;;;;;;;4.93;1.20;;;;;;;19.20;68.09;97293.31;4992461;28;20454;-82
2023/08/03 00:07:47;;;;;;;4.95;1.52;;;;;;;19.22;67.96;97288.56;4992291;28;20439;-82
2023/08/03 00:10:15;;;;;;;10.18;1.55;;;;;;;19.24;67.83;97293.69;4992614;28;20122;-82
2023/08/03 00:12:43;;;;;;;4.53;1.23;;;;;;;19.24;67.83;97286.53;4991685;28;20054;-81
2023/08/03 00:15:11;;;;;;;4.60;1.25;;;;;;;19.24;68.15;97281.19;4992455;28;20100;-83
2023/08/03 00:17:38;;;;;;;4.63;1.27;;;;;;;19.26;67.82;97279.13;4992371;28;20129;-81
2023/08/03 00:20:06;;;;;;;3.22;1.27;;;;;;;19.27;67.91;97269.31;4992387;28;20112;-82
2023/08/03 00:22:33;;;;;;;5.75;1.23;;;;;;;19.27;67.86;97262.13;4991631;28;20042;-82
2023/08/03 00:25:00;;;;;;;3.70;1.25;;;;;;;19.30;68.02;97257.41;4992081;28;20046;-83
2023/08/03 00:27:28;;;;;;;5.35;1.50;;;;;;;19.31;67.87;97261.69;4992186;28;20062;-82
2023/08/03 00:29:55;;;;;;;4.15;1.42;;;;;;;19.32;67.86;97258.03;4992397;28;20442;-82
2023/08/03 00:32:21;;;;;;;3.35;1.10;;;;;;;19.32;68.21;97256.16;4992078;28;20047;-83
2023/08/03 00:34:48;;;;;;;3.67;1.20;;;;;;;19.33;67.67;97247.13;4991930;28;20046;-81
2023/08/03 00:37:14;;;;;;;6.20;1.40;;;;;;;19.34;68.10;97247.97;4992121;28;20045;-82
2023/08/03 00:39:41;;;;;;;3.45;1.20;;;;;;;19.33;68.30;97249.78;4974757;28;20042;-82
2023/08/03 00:42:07;;;;;;;2.85;1.10;;;;;;;19.34;68.29;97243.47;4991832;28;20163;-83
2023/08/03 00:44:34;;;;;;;3.17;1.10;;;;;;;19.33;68.11;97233.78;4992083;28;20128;-82
2023/08/03 00:47:01;;;;;;;3.78;1.60;;;;;;;19.34;67.90;97247.97;4991649;28;20042;-83
2023/08/03 00:49:28;;;;;;;7.97;1.60;;;;;;;19.32;68.33;97229.50;5087189;23;20445;-77
2023/08/03 00:51:56;;;;;;;3.00;1.08;;;;;;;19.31;67.95;97237.69;4991530;28;20050;-77
2023/08/03 00:54:23;;;;;;;2.63;1.17;;;;;;;19.29;68.33;97224.59;4991717;28;20061;-79
2023/08/03 00:56:53;;;;;;;3.88;1.20;;;;;;;19.25;68.75;97226.84;4991761;28;20112;-77
2023/08/03 00:59:20;;;;;;;5.25;1.50;;;;;;;19.27;68.32;97226.63;4991670;28;20136;-78
2023/08/03 01:01:47;;;;;;;3.17;1.05;;;;;;;19.26;68.47;97225.00;4991367;28;20065;-78
2023/08/03 01:04:13;;;;;;;2.75;1.02;;;;;;;19.24;68.68;97219.88;4991556;28;20113;-78
2023/08/03 01:06:40;;;;;;;5.38;1.40;;;;;;;19.25;68.49;97218.03;4991403;28;20046;-77
2023/08/03 01:09:13;;;;;;;6.28;1.35;;;;;;;19.21;68.96;97208.81;4991895;28;20117;-77
2023/08/03 01:11:43;;;;;;;4.47;1.40;;;;;;;19.22;68.30;97210.44;4991159;28;20065;-77
2023/08/03 01:14:10;;;;;;;3.95;1.23;;;;;;;19.20;68.85;97213.31;4992144;28;20483;-77
2023/08/03 01:16:40;;;;;;;3.78;1.48;;;;;;;19.14;68.99;97206.94;4991534;28;20104;-78
2023/08/03 01:19:52;;;;;;;3.88;1.20;;;;;;;19.07;69.73;97208.81;4992400;28;20435;-77
2023/08/03 01:22:40;;;;;;;3.97;1.20;;;;;;;19.04;69.27;97200.34;4985234;28;20112;-77
2023/08/03 01:25:11;;;;;;;2.80;0.80;;;;;;;18.98;69.51;97194.00;4979967;28;20054;-78
2023/08/03 01:27:38;;;;;;;3.20;0.90;;;;;;;18.94;68.86;97203.41;4997962;28;20050;-77
2023/08/03 01:30:31;;;;;;;2.08;0.88;;;;;;;18.86;69.65;97202.63;4999114;28;20403;-78
2023/08/03 01:33:11;;;;;;;3.20;0.73;;;;;;;18.82;69.34;97190.72;4937629;29;20235;-77
2023/08/03 01:35:54;;;;;;;1.55;0.65;;;;;;;18.73;70.45;97197.28;4996872;28;20080;-78
2023/08/03 01:38:41;;;;;;;1.58;0.82;;;;;;;18.70;70.57;97189.69;4982324;28;20058;-77
2023/08/03 01:41:09;;;;;;;0.93;0.57;;;;;;;18.69;69.93;97198.72;4980796;28;20054;-77
2023/08/03 01:43:36;;;;;;;3.00;0.77;;;;;;;18.65;70.31;97198.28;4998276;28;20415;-77
2023/08/03 01:46:04;;;;;;;3.90;0.70;;;;;;;18.61;70.17;97208.53;4998166;28;20054;-78
2023/08/03 01:48:53;;;;;;;1.17;0.65;;;;;;;18.54;71.52;97194.38;4997496;28;20472;-78
2023/08/03 01:51:23;;;;;;;2.42;0.70;;;;;;;18.54;71.24;97207.69;4998297;28;20042;-78
2023/08/03 01:53:52;;;;;;;1.98;0.80;;;;;;;18.50;71.52;97203.78;4997976;28;20414;-77
2023/08/03 01:56:20;;;;;;;1.38;0.70;;;;;;;18.49;70.69;97212.81;4998479;28;20047;-77
2023/08/03 01:58:47;;;;;;;0.77;0.60;;;;;;;18.46;71.05;97199.88;4998867;28;20050;-77
2023/08/03 02:01:28;;;;;;;1.15;0.70;;;;;;;18.41;70.97;97197.84;4982630;28;20550;-77
2023/08/03 02:04:04;;;;;;;1.13;0.70;;;;;;;18.36;72.62;97211.75;4980800;28;20121;-77
2023/08/03 02:06:31;;;;;;;0.60;0.60;;;;;;;18.38;71.42;97214.22;4998021;28;20084;-77
2023/08/03 02:09:19;;;;;;;1.10;0.60;;;;;;;18.31;72.71;97216.88;4998504;28;20491;-77
2023/08/03 02:12:04;;;;;;;1.50;0.80;;;;;;;18.34;71.67;97216.47;4997889;28;20046;-77
2023/08/03 02:14:42;;;;;;;3.95;0.90;;;;;;;18.30;72.65;97212.56;4998361;28;20050;-78
2023/08/03 02:17:09;;;;;;;1.48;0.82;;;;;;;18.33;72.31;97222.00;4998252;28;20050;-77
2023/08/03 02:19:37;;;;;;;1.48;0.80;;;;;;;18.31;72.01;97222.19;4998172;28;20046;-77
2023/08/03 02:22:04;;;;;;;1.05;0.73;;;;;;;18.32;72.13;97210.50;4998296;28;20105;-77
2023/08/03 02:24:31;;;;;;;3.55;0.70;;;;;;;18.33;72.45;97222.81;4997996;28;20054;-77
2023/08/03 02:27:01;;;;;;;3.17;0.85;;;;;;;18.32;73.29;97226.47;4997815;28;20042;-78
2023/08/03 02:29:57;;;;;;;1.48;0.70;;;;;;;18.32;73.62;97239.00;4997138;28;20050;-78
2023/08/03 02:32:25;;;;;;;2.95;0.70;;;;;;;18.37;72.60;97239.22;4997781;28;20057;-78
2023/08/03 02:34:51;;;;;;;1.70;0.70;;;;;;;18.36;73.03;97227.72;4980723;28;20042;-77
2023/08/03 02:37:23;;;;;;;1.05;0.70;;;;;;;18.36;72.83;97227.72;4993459;28;20054;-77
2023/08/03 02:39:53;;;;;;;1.90;0.70;;;;;;;18.36;73.23;97233.06;4994846;28;20057;-77
2023/08/03 02:42:23;;;;;;;1.60;0.60;;;;;;;18.36;73.51;97238.38;4979543;28;20042;-77
2023/08/03 02:44:49;;;;;;;2.38;0.90;;;;;;;18.38;73.10;97229.41;4977338;28;20053;-78
2023/08/03 02:47:16;;;;;;;1.42;0.77;;;;;;;18.39;72.86;97241.69;4994714;28;20066;-77
2023/08/03 02:49:43;;;;;;;1.85;0.80;;;;;;;18.38;73.09;97248.84;4994042;28;20046;-77
2023/08/03 02:52:09;;;;;;;1.80;1.10;;;;;;;18.39;73.46;97247.81;4994529;28;20098;-78
2023/08/03 02:54:39;;;;;;;0.90;0.80;;;;;;;18.38;73.52;97245.38;4994351;28;20058;-78
2023/08/03 02:57:06;;;;;;;2.08;0.88;;;;;;;18.40;73.31;97256.63;4976461;28;20074;-77
2023/08/03 02:59:33;;;;;;;1.58;1.00;;;;;;;18.41;73.32;97263.59;4994021;28;20046;-77
2023/08/03 03:02:00;;;;;;;0.98;0.88;;;;;;;18.41;73.46;97266.25;4993758;28;20415;-77
2023/08/03 03:04:26;;;;;;;1.85;1.10;;;;;;;18.41;73.42;97271.59;4993804;28;20511;-76
2023/08/03 03:06:53;;;;;;;2.70;1.50;;;;;;;18.41;73.51;97263.59;4993332;28;20062;-76
2023/08/03 03:09:20;;;;;;;2.38;1.08;;;;;;;18.41;73.37;97279.56;4993618;28;20076;-78
2023/08/03 03:11:51;;;;;;;1.85;1.10;;;;;;;18.41;73.75;97290.22;4993646;28;20073;-77
2023/08/03 03:14:17;;;;;;;3.42;1.40;;;;;;;18.42;73.70;97283.88;4993864;28;20062;-78
2023/08/03 03:16:50;;;;;;;2.72;1.40;;;;;;;18.40;74.41;97297.41;4994153;28;20046;-77
2023/08/03 03:19:46;;;;;;;2.83;1.23;;;;;;;18.39;75.09;97292.28;4994640;28;20455;-77
2023/08/03 03:22:37;;;;;;;2.35;1.33;;;;;;;18.45;73.72;97304.78;4980394;28;20049;-77
2023/08/03 03:25:04;;;;;;;1.40;1.13;;;;;;;18.44;73.69;97295.16;4994021;28;20046;-77
2023/08/03 03:27:42;;;;;;;2.85;1.70;;;;;;;18.44;73.65;97311.97;4991982;28;20051;-77
2023/08/03 03:30:09;;;;;;;3.17;1.27;;;;;;;18.44;73.75;97300.50;4993255;28;20055;-78
2023/08/03 03:32:48;;;;;;;1.92;1.58;;;;;;;18.40;75.02;97307.22;4993648;28;20073;-77
2023/08/03 03:35:15;;;;;;;3.65;1.60;;;;;;;18.45;73.93;97326.09;4993478;28;20157;-77
2023/08/03 03:37:42;;;;;;;2.50;1.30;;;;;;;18.45;73.97;97328.75;4993361;28;20076;-78
2023/08/03 03:40:10;;;;;;;3.80;1.20;;;;;;;18.44;74.06;97338.63;4993258;28;20137;-77
2023/08/03 03:42:36;;;;;;;3.00;1.42;;;;;;;18.45;74.15;97340.25;4992832;28;20058;-77
2023/08/03 03:45:04;;;;;;;3.33;1.70;;;;;;;18.44;74.47;97345.78;4992934;28;20071;-77
2023/08/03 03:47:30;;;;;;;2.72;1.17;;;;;;;18.45;74.13;97347.41;4992891;28;20050;-77
2023/08/03 03:50:11;;;;;;;2.72;1.40;;;;;;;18.46;74.23;97343.72;4971386;28;20050;-77
2023/08/03 03:52:37;;;;;;;2.08;1.17;;;;;;;18.46;74.09;97354.38;4992830;28;20055;-78
2023/08/03 03:55:05;;;;;;;1.92;1.20;;;;;;;18.46;74.37;97352.53;4993049;28;20054;-77
2023/08/03 03:57:32;;;;;;;4.38;1.10;;;;;;;18.46;74.46;97363.19;4993186;28;20042;-77
2023/08/03 04:00:04;;;;;;;2.97;0.90;;;;;;;18.46;74.64;97365.03;4992936;28;20058;-78
2023/08/03 04:02:31;;;;;;;2.25;1.42;;;;;;;18.46;74.43;97360.53;4992799;28;20046;-77
2023/08/03 04:04:57;;;;;;;2.45;1.20;;;;;;;18.47;74.29;97364.03;4992205;28;20046;-78
2023/08/03 04:07:24;;;;;;;1.48;1.00;;;;;;;18.46;74.33;97363.19;4992133;28;20046;-78
2023/08/03 04:09:51;;;;;;;1.48;1.00;;;;;;;18.46;74.51;97373.84;4992424;28;20050;-78
2023/08/03 04:12:17;;;;;;;2.78;1.10;;;;;;;18.46;74.55;97378.34;4992740;28;20058;-78
2023/08/03 04:14:44;;;;;;;1.20;1.10;;;;;;;18.47;74.64;97380.00;4992794;28;20046;-78
2023/08/03 04:17:11;;;;;;;1.75;1.10;;;;;;;18.47;74.43;97388.00;4992249;28;20050;-78
2023/08/03 04:19:37;;;;;;;1.90;1.20;;;;;;;18.46;74.67;97397.00;4992401;28;20051;-77
2023/08/03 04:22:04;;;;;;;2.65;1.35;;;;;;;18.46;74.99;97389.84;4992619;28;20073;-77
2023/08/03 04:24:34;;;;;;;1.83;1.60;;;;;;;18.44;75.14;97401.72;4992601;28;20490;-77
2023/08/03 04:27:02;;;;;;;2.25;1.23;;;;;;;18.46;74.87;97387.16;4974763;28;20046;-77
2023/08/03 04:29:29;;;;;;;1.35;1.25;;;;;;;18.46;74.71;97408.47;4992612;28;20057;-76
2023/08/03 04:34:47;;;;;;;3.67;1.65;;;;;;;18.46;75.08;97419.13;4991704;28;20054;-76
2023/08/03 04:37:13;;;;;;;3.45;1.40;;;;;;;18.46;75.00;97413.81;4974811;28;20053;-77
2023/08/03 04:39:40;;;;;;;2.05;1.27;;;;;;;18.42;75.07;97414.38;4974943;28;20050;-77
2023/08/03 04:42:07;;;;;;;2.67;1.50;;;;;;;18.40;75.04;97425.25;4974605;28;20503;-77
2023/08/03 04:44:33;;;;;;;3.25;1.45;;;;;;;18.38;75.52;97424.63;4991735;28;20056;-75
2023/08/03 04:47:00;;;;;;;3.25;1.00;;;;;;;18.37;75.21;97420.31;4991931;28;20046;-76
2023/08/03 04:49:27;;;;;;;1.60;1.08;;;;;;;18.34;75.56;97410.88;4992769;28;20057;-76
2023/08/03 04:51:53;;;;;;;2.58;1.05;;;;;;;18.32;76.07;97420.88;4992785;28;20054;-75
2023/08/03 04:54:26;;;;;;;1.40;1.00;;;;;;;18.29;76.65;97421.31;4992689;28;20071;-76
2023/08/03 04:56:53;;;;;;;2.28;1.40;;;;;;;18.31;76.09;97426.41;4991743;28;20057;-76
2023/08/03 04:59:19;;;;;;;2.85;1.52;;;;;;;18.31;76.22;97421.06;4990433;28;20050;-76
2023/08/03 05:01:46;;;;;;;3.90;1.30;;;;;;;18.31;76.22;97429.06;4991375;28;20054;-77
2023/08/03 05:04:13;;;;;;;3.85;1.63;;;;;;;18.31;76.69;97429.06;4991403;28;20046;-77
2023/08/03 05:06:40;;;;;;;4.10;1.60;;;;;;;18.32;76.66;97436.06;4991305;28;20069;-75
2023/08/03 05:09:06;;;;;;;3.03;1.67;;;;;;;18.32;76.55;97425.41;4991337;28;20046;-77
2023/08/03 05:11:33;;;;;;;4.78;2.40;;;;;;;18.33;76.48;97435.88;4991578;28;20088;-76
2023/08/03 05:14:00;;;;;;;3.38;1.92;;;;;;;18.34;76.50;97444.66;4991421;28;20043;-77
2023/08/03 05:16:27;;;;;;;5.20;1.85;;;;;;;18.34;76.49;97442.00;4991167;28;20109;-76
2023/08/03 05:18:54;;;;;;;4.97;1.92;;;;;;;18.34;76.63;97445.50;4991320;28;20503;-76
2023/08/03 05:21:21;;;;;;;5.95;1.88;;;;;;;18.35;76.89;97456.94;4974096;28;20173;-76
2023/08/03 05:23:47;;;;;;;3.95;1.88;;;;;;;18.34;76.53;97448.16;4991523;28;20109;-77
2023/08/03 05:26:14;;;;;;;5.25;1.88;;;;;;;18.34;76.83;97450.81;4991397;28;20047;-77
2023/08/03 05:28:40;;;;;;;4.57;2.38;;;;;;;18.34;76.72;97463.31;4991153;28;20145;-76
2023/08/03 05:31:07;;;;;;;4.95;1.75;;;;;;;18.34;76.99;97460.66;4990828;28;20077;-76
2023/08/03 05:33:34;;;;;;;4.90;1.80;;;;;;;18.35;76.86;97449.78;4990990;28;20147;-77
2023/08/03 05:36:02;;;;;;;5.03;1.98;;;;;;;18.36;77.16;97461.28;4991287;28;20527;-77
2023/08/03 05:42:14;;;;;;;5.43;1.63;;;;;;;18.36;77.14;97459.44;5000576;23;20077;-76
2023/08/03 05:44:41;;;;;;;5.22;1.80;;;;;;;18.38;77.09;97447.78;4991345;28;20042;-78
2023/08/03 05:47:10;;;;;;;4.88;1.90;;;;;;;18.37;76.89;97452.28;4991200;28;20514;-77
2023/08/03 05:49:37;;;;;;;3.35;1.45;;;;;;;18.38;76.80;97455.78;4991170;28;20055;-76
2023/08/03 05:52:05;;;;;;;7.60;2.10;;;;;;;18.35;76.76;97444.47;4991317;28;20054;-78
2023/08/03 05:54:31;;;;;;;5.03;1.40;;;;;;;18.34;77.06;97444.66;4991450;28;20528;-76
2023/08/03 05:56:58;;;;;;;2.58;1.20;;;;;;;18.32;77.00;97434.19;4991201;28;20082;-76
2023/08/03 05:59:24;;;;;;;2.53;1.15;;;;;;;18.30;77.47;97430.09;4973899;28;20054;-79
2023/08/03 06:01:52;;;;;;;6.30;1.55;;;;;;;18.29;77.44;97428.44;4990856;28;20542;-76
2023/08/03 06:04:19;;;;;;;3.28;1.35;;;;;;;18.27;77.72;97433.97;4991001;28;20422;-78
2023/08/03 06:06:46;;;;;;;3.13;1.70;;;;;;;18.26;77.95;97429.66;4991115;28;20116;-78
2023/08/03 06:09:13;;;;;;;3.88;1.45;;;;;;;18.24;77.75;97437.00;4991233;28;20042;-77
2023/08/03 06:11:40;;;;;;;6.15;2.08;;;;;;;18.24;78.08;97434.34;4992605;28;20046;-77
2023/08/03 06:14:16;;;;;;;3.60;1.98;;;;;;;18.19;77.89;97432.28;4994797;28;20085;-78
2023/08/03 06:16:44;;;;;;;3.88;1.85;;;;;;;18.21;78.09;97445.41;4994420;28;20082;-77
2023/08/03 06:19:11;;;;;;;3.88;2.05;;;;;;;18.20;77.99;97454.41;4994917;28;20136;-78
2023/08/03 06:21:37;;;;;;;4.63;1.70;;;;;;;18.18;78.18;97475.91;4994573;28;20081;-78
2023/08/03 06:24:04;;;;;;;5.55;1.92;;;;;;;18.18;78.38;97485.72;4994602;28;20483;-77
2023/08/03 06:26:32;;;;;;;2.20;1.35;;;;;;;18.16;78.76;97501.09;4994451;28;20054;-77
2023/08/03 06:29:01;;;;;;;4.38;1.27;;;;;;;18.16;78.80;97509.06;4977171;28;20105;-77
2023/08/03 06:31:36;;;;;;;2.42;1.33;;;;;;;18.13;78.99;97518.25;4976807;28;20524;-78
2023/08/03 06:34:03;;;;;;;4.65;1.50;;;;;;;18.18;79.04;97523.84;4994639;28;20050;-77
2023/08/03 06:36:30;;;;;;;4.57;1.67;;;;;;;18.19;79.21;97525.47;4994270;28;20058;-76
2023/08/03 06:38:57;;;;;;;1.65;1.23;;;;;;;18.19;79.32;97533.47;4994260;28;20674;-78
2023/08/03 06:41:25;;;;;;;2.92;1.20;;;;;;;18.20;79.41;97536.94;4993894;28;20471;-76
2023/08/03 06:43:53;;;;;;;1.70;0.75;;;;;;;18.22;79.52;97540.25;4994079;28;20512;-77
2023/08/03 06:46:20;;;;;;;2.22;1.00;;;;;;;18.25;79.37;97550.53;4994224;28;20136;-76
2023/08/03 06:51:26;;;;;;;3.40;0.93;;;;;;;18.27;79.35;97548.47;4963173;23;20058;-80
2023/08/03 06:53:52;;;;;;;1.63;0.93;;;;;;;18.28;79.58;97551.97;4993422;28;20573;-79
2023/08/03 06:56:19;;;;;;;2.90;0.95;;;;;;;18.30;79.84;97553.44;4976114;28;20424;-80
2023/08/03 06:58:46;;;;;;;3.97;0.90;;;;;;;18.32;79.98;97551.38;4976339;28;20050;-79
2023/08/03 07:01:12;;;;;;;1.90;1.00;;;;;;;18.35;79.82;97561.66;4993408;28;20101;-81
2023/08/03 07:03:39;;;;;;;1.52;0.75;;;;;;;18.39;79.84;97561.28;4976672;28;20487;-81
2023/08/03 07:06:07;;;;;;;1.60;0.98;;;;;;;18.40;79.92;97563.75;4993357;28;20479;-80
2023/08/03 07:08:34;;;;;;;2.47;1.00;;;;;;;18.42;79.59;97563.53;4993576;28;20566;-80
2023/08/03 07:11:00;;;;;;;1.52;0.90;;;;;;;18.46;79.96;97578.13;4993740;28;20435;-82
2023/08/03 07:13:27;;;;;;;2.97;1.20;;;;;;;18.47;79.70;97569.94;4993480;28;20054;-80
2023/08/03 07:15:54;;;;;;;1.05;0.70;;;;;;;18.48;79.86;97581.44;4993325;28;20058;-80
2023/08/03 07:18:21;;;;;;;3.30;0.95;;;;;;;18.50;79.74;97584.72;4993576;28;20058;-79
2023/08/03 07:20:47;;;;;;;0.85;0.68;;;;;;;18.50;79.61;97579.38;4993855;28;20402;-78
2023/08/03 07:23:14;;;;;;;3.45;0.75;;;;;;;18.52;79.20;97593.34;4992686;28;20491;-80
2023/08/03 07:25:41;;;;;;;1.33;0.60;;;;;;;18.52;79.61;97598.69;4993135;28;20054;-79
2023/08/03 07:28:07;;;;;;;1.67;0.50;;;;;;;18.52;79.73;97601.34;4993046;28;20493;-79
2023/08/03 07:30:37;;;;;;;1.48;0.77;;;;;;;18.50;79.44;97603.34;4993481;28;20046;-79
2023/08/03 07:33:03;;;;;;;2.15;0.60;;;;;;;18.52;79.54;97598.69;4993013;28;20547;-79
2023/08/03 07:35:30;;;;;;;1.30;0.77;;;;;;;18.52;79.43;97611.16;4993180;28;20054;-79
2023/08/03 07:37:57;;;;;;;1.08;0.60;;;;;;;18.51;79.69;97618.34;4992723;28;20046;-79
2023/08/03 07:40:23;;;;;;;2.25;0.60;;;;;;;18.51;79.67;97613.03;4993026;28;20499;-79
2023/08/03 07:42:50;;;;;;;3.10;0.60;;;;;;;18.51;79.89;97621.00;4992947;28;20054;-80
2023/08/03 07:45:17;;;;;;;0.93;0.40;;;;;;;18.53;79.74;97626.13;4993368;28;20484;-78
2023/08/03 07:48:03;;;;;;;0.60;0.55;;;;;;;18.53;79.79;97637.63;4992861;28;20085;-79
2023/08/03 07:50:30;;;;;;;1.20;0.50;;;;;;;18.54;79.63;97641.91;4992579;28;20049;-79
2023/08/03 07:52:57;;;;;;;0.73;0.50;;;;;;;18.55;79.78;97645.44;4992871;28;20495;-79
2023/08/03 07:55:23;;;;;;;1.92;0.68;;;;;;;18.54;79.84;97644.59;4992607;28;20061;-79
2023/08/03 07:57:50;;;;;;;0.65;0.50;;;;;;;18.55;79.89;97651.59;4992317;28;20486;-78
2023/08/03 08:00:17;;;;;;;1.35;0.65;;;;;;;18.57;79.95;97656.69;4992675;28;20085;-80
2023/08/03 08:02:43;;;;;;;0.70;0.70;;;;;;;18.58;80.43;97664.50;4992806;28;20105;-80
2023/08/03 08:05:10;;;;;;;0.80;0.50;;;;;;;18.60;80.60;97661.66;4992605;28;20051;-78
2023/08/03 08:07:36;;;;;;;1.17;0.50;;;;;;;18.64;80.40;97662.91;4974760;28;20081;-80
2023/08/03 08:10:03;;;;;;;0.77;0.50;;;;;;;18.67;80.25;97667.03;4992299;28;20050;-79
2023/08/03 08:12:30;;;;;;;0.40;0.40;;;;;;;18.69;80.28;97681.00;4992700;28;20132;-79
2023/08/03 08:14:56;;;;;;;0.50;0.50;;;;;;;18.69;80.13;97681.81;4992452;28;20086;-79
2023/08/03 08:17:23;;;;;;;0.95;0.43;;;;;;;18.70;80.01;97686.16;4992253;28;20050;-79
2023/08/03 08:19:50;;;;;;;0.38;0.32;;;;;;;18.70;79.70;97685.31;4991862;28;20050;-79
2023/08/03 08:22:16;;;;;;;1.55;0.60;;;;;;;18.70;79.49;97680.81;4974855;28;20050;-79
2023/08/03 08:24:44;;;;;;;0.70;0.57;;;;;;;18.71;79.56;97692.28;4992269;28;20065;-80
2023/08/03 08:27:11;;;;;;;1.30;0.70;;;;;;;18.71;79.74;97692.28;4991930;28;20125;-79
2023/08/03 08:29:39;;;;;;;0.30;0.30;;;;;;;18.70;79.82;97702.16;4992282;28;20058;-80
2023/08/03 08:32:06;;;;;;;0.40;0.40;;;;;;;18.71;79.60;97708.28;4992233;28;20540;-79
2023/08/03 08:34:33;;;;;;;0.47;0.35;;;;;;;18.69;79.47;97700.47;4991287;28;20495;-80
2023/08/03 08:36:59;;;;;;;0.73;0.20;;;;;;;18.71;79.68;97713.59;4991849;28;20140;-79
2023/08/03 08:39:28;;;;;;;1.38;0.30;;;;;;;18.68;79.55;97720.16;4991752;28;20149;-79
2023/08/03 08:41:56;;;;;;;0.63;0.22;;;;;;;18.69;79.44;97721.78;4983982;28;20054;-79
2023/08/03 08:44:22;;;;;;;1.27;0.30;;;;;;;18.67;79.74;97717.66;4991868;28;20092;-79
2023/08/03 08:46:49;;;;;;;0.55;0.20;;;;;;;18.66;79.93;97724.84;4991474;28;20077;-80
2023/08/03 08:49:16;;;;;;;0.40;0.20;;;;;;;18.67;80.08;97733.66;4991407;28;20054;-79
2023/08/03 08:51:46;;;;;;;0.60;0.45;;;;;;;18.68;80.25;97735.31;4992163;28;20094;-79
2023/08/03 08:54:17;;;;;;;2.38;0.60;;;;;;;18.69;80.45;97731.66;4991854;28;20450;-80
2023/08/03 08:56:45;;;;;;;0.90;0.50;;;;;;;18.70;80.05;97746.63;4991614;28;20055;-79
2023/08/03 08:59:14;;;;;;;0.40;0.40;;;;;;;18.69;80.04;97743.09;4991249;28;20054;-80
2023/08/03 09:01:48;;;;;;;1.02;0.60;;;;;;;18.70;80.03;97744.78;4991728;28;20057;-79
2023/08/03 09:04:30;;;;;;;1.02;0.70;;;;;;;18.69;79.97;97753.78;4974195;28;20494;-80
2023/08/03 09:06:58;;;;;;;0.98;0.70;;;;;;;18.73;80.14;97760.38;4991718;28;20050;-79
2023/08/03 09:09:28;;;;;;;1.33;0.93;;;;;;;18.74;80.20;97761.22;4991404;28;20134;-80
2023/08/03 09:11:55;;;;;;;1.30;0.90;;;;;;;18.77;80.65;97766.16;4991603;28;20126;-79
2023/08/03 09:14:23;;;;;;;3.30;0.80;;;;;;;18.79;80.64;97763.28;4974239;28;20407;-79
2023/08/03 09:16:50;;;;;;;0.93;0.70;;;;;;;18.82;80.92;97774.41;4991302;28;20046;-80
2023/08/03 09:19:34;;;;;;;2.28;1.13;;;;;;;18.81;80.83;97772.78;4991311;28;20085;-79
2023/08/03 09:22:01;;;;;;;1.45;0.85;;;;;;;18.91;80.96;97776.97;4973948;28;20518;-80
2023/08/03 09:24:29;;;;;;;1.52;0.88;;;;;;;18.95;81.59;97783.56;4991455;28;20113;-80
2023/08/03 09:26:59;;;;;;;1.73;0.63;;;;;;;18.97;81.28;97786.84;4974279;28;20082;-79
2023/08/03 09:29:31;;;;;;;0.70;0.70;;;;;;;19.01;80.97;97793.44;4991344;28;20142;-80
2023/08/03 09:32:05;;;;;;;1.33;0.70;;;;;;;19.05;80.76;97799.22;4991579;28;20089;-79
2023/08/03 09:34:52;;;;;;;1.95;0.65;;;;;;;19.12;81.02;97800.97;4977050;28;20051;-79
2023/08/03 09:37:32;;;;;;;0.85;0.77;;;;;;;19.11;80.50;97820.63;4991099;28;20502;-80
2023/08/03 09:40:05;;;;;;;1.58;0.40;;;;;;;19.18;80.61;97809.22;4991579;28;20130;-81
2023/08/03 09:42:32;;;;;;;0.40;0.40;;;;;;;19.21;80.39;97811.50;4991083;28;20050;-80
2023/08/03 09:45:02;;;;;;;0.90;0.40;;;;;;;19.21;80.50;97817.66;4974892;28;20082;-79
2023/08/03 09:47:30;;;;;;;1.02;0.40;;;;;;;19.22;80.38;97824.63;4995159;28;20050;-79
2023/08/03 09:49:58;;;;;;;0.35;0.35;;;;;;;19.24;80.98;97827.09;4994858;28;20061;-80
2023/08/03 09:52:29;;;;;;;0.50;0.50;;;;;;;19.24;80.37;97829.78;4994945;28;20047;-79
2023/08/03 09:55:10;;;;;;;1.23;0.68;;;;;;;19.26;80.30;97839.25;4995491;28;20071;-80
2023/08/03 09:57:43;;;;;;;0.75;0.50;;;;;;;19.30;80.54;97845.03;4994682;28;20499;-79
2023/08/03 10:00:12;;;;;;;1.67;0.70;;;;;;;19.33;81.00;97844.63;4994749;28;20058;-80
2023/08/03 10:02:45;;;;;;;1.55;0.60;;;;;;;19.36;80.82;97841.59;4977529;28;20137;-80
2023/08/03 10:05:17;;;;;;;1.25;0.57;;;;;;;19.42;80.95;97853.34;4994711;28;20042;-79
2023/08/03 10:08:13;;;;;;;1.85;0.43;;;;;;;19.45;81.03;97852.13;4977886;28;20054;-80
2023/08/03 10:10:47;;;;;;;;;;;;;;;19.54;80.78;97861.63;4985354;28;20415;-80
2023/08/03 10:13:15;;;;;;;0.30;0.30;;;;;;;19.66;81.51;97860.09;4975364;28;19926;-80
2023/08/03 10:15:42;;;;;;;0.40;0.40;;;;;;;19.72;81.61;97863.00;4974738;28;20054;-79
2023/08/03 10:18:10;;;;;;;1.55;0.50;;;;;;;19.78;82.07;97868.41;4974356;28;20059;-79
2023/08/03 10:20:39;;;;;;;1.00;0.63;;;;;;;19.87;82.60;97868.25;4974375;28;20495;-80
2023/08/03 10:23:19;;;;;;;0.98;0.63;;;;;;;19.97;82.96;97868.75;4989966;28;20053;-79
2023/08/03 10:25:59;;;;;;;0.57;0.57;;;;;;;20.13;83.81;97873.00;4993698;28;20097;-80
2023/08/03 10:28:38;;;;;;;0.73;0.60;;;;;;;20.37;84.83;97886.06;4993510;28;20050;-80
2023/08/03 10:31:10;;;;;;;1.38;0.60;;;;;;;20.54;83.40;97878.53;4994081;28;20123;-80
2023/08/03 10:33:47;;;;;;;0.85;0.60;;;;;;;20.69;81.78;97883.75;4994100;28;20051;-79
2023/08/03 10:36:26;;;;;;;0.50;0.40;;;;;;;20.84;80.95;97888.94;4994419;28;20042;-79
2023/08/03 10:38:58;;;;;;;0.85;0.60;;;;;;;20.98;80.33;97897.03;4994077;28;20054;-79
2023/08/03 10:41:37;;;;;;;0.43;0.43;;;;;;;21.06;80.07;97903.03;4994245;28;20053;-79
2023/08/03 10:44:12;;;;;;;0.40;0.40;;;;;;;21.17;80.56;97890.91;4994037;28;20046;-79
2023/08/03 10:46:49;;;;;;;0.75;0.60;;;;;;;21.28;80.38;97899.38;4994210;28;20053;-80
2023/08/03 10:51:53;;;;;;;1.35;0.90;;;;;;;21.62;82.52;97902.91;4994282;28;20058;-80
2023/08/03 10:54:30;;;;;;;1.60;1.00;;;;;;;21.78;79.80;97904.38;4993562;28;20137;-79
2023/08/03 10:57:06;;;;;;;0.80;0.80;;;;;;;21.97;80.38;97915.28;4992862;28;20051;-80
2023/08/03 10:59:37;;;;;;;1.02;0.77;;;;;;;22.15;79.98;97901.25;4993724;28;20056;-79
2023/08/03 11:02:22;;;;;;;2.13;0.80;;;;;;;22.28;78.42;97919.19;4993947;28;20495;-79
2023/08/03 11:04:50;;;;;;;1.67;0.70;;;;;;;22.47;80.40;97909.41;4993735;28;20162;-79
2023/08/03 11:07:38;;;;;;;2.50;1.00;;;;;;;22.59;77.66;97911.47;4976540;28;20050;-80
2023/08/03 11:10:07;;;;;;;1.88;0.75;;;;;;;22.80;80.11;97917.59;4993542;28;20133;-79
2023/08/03 11:12:34;;;;;;;3.22;1.33;;;;;;;22.96;79.65;97917.13;4992999;28;20058;-80
2023/08/03 11:15:05;;;;;;;1.42;0.68;;;;;;;23.14;78.98;97918.28;4993356;28;20046;-79
2023/08/03 11:17:34;;;;;;;1.45;0.63;;;;;;;23.29;78.95;97924.16;4976779;28;20406;-79
2023/08/03 11:20:02;;;;;;;1.23;0.80;;;;;;;23.46;78.32;97922.84;4993504;28;20137;-79
2023/08/03 11:22:30;;;;;;;1.38;0.90;;;;;;;23.62;77.95;97927.69;4993379;28;20069;-79
2023/08/03 11:25:03;;;;;;;2.33;0.70;;;;;;;23.80;77.53;97935.00;4992776;28;20145;-79
2023/08/03 11:27:30;;;;;;;0.75;0.65;;;;;;;23.95;75.86;97931.97;4992132;28;20058;-79
2023/08/03 11:29:57;;;;;;;1.13;0.73;;;;;;;24.01;73.65;97941.03;4991735;28;20047;-79
2023/08/03 11:32:28;;;;;;;0.63;0.63;;;;;;;23.99;71.87;97945.78;4992272;28;20112;-79
2023/08/03 11:35:03;;;;;;;2.28;0.70;;;;;;;23.92;70.60;97955.78;4992008;28;20050;-79
2023/08/03 11:37:31;;;;;;;1.40;0.63;;;;;;;23.86;73.23;97960.16;4991814;28;20058;-79
2023/08/03 11:40:00;;;;;;;2.90;0.82;;;;;;;23.83;74.18;97968.66;4992235;28;20046;-79
2023/08/03 11:42:28;;;;;;;2.38;0.70;;;;;;;23.84;74.07;97974.88;4993036;28;20133;-78
2023/08/03 11:44:55;;;;;;;1.20;0.73;;;;;;;23.84;73.85;97978.34;4992895;28;20487;-78
2023/08/03 11:47:23;;;;;;;1.10;0.70;;;;;;;23.87;74.08;97988.69;4993002;28;20053;-80
2023/08/03 11:49:54;;;;;;;1.75;1.08;;;;;;;23.91;74.53;97981.81;4992154;28;20069;-79
2023/08/03 11:52:22;;;;;;;1.13;0.82;;;;;;;23.97;75.08;97988.19;4992495;28;20073;-79
2023/08/03 11:54:49;;;;;;;2.88;1.10;;;;;;;24.02;74.09;97993.72;4992212;28;20138;-78
2023/08/03 12:00:03;;;;;;;2.28;1.08;;;;;;;24.08;72.33;97997.41;4992222;28;20054;-78